首页
METAR-TAF:

METAR-TAF

机场 :

普雷韋扎, 希腊

纬度: 38-37N, 经度: 020-46E, 海拔: 4米

当前天气观测

该预报发布于28分钟前的10:50 UTC
风速12节,风向东转东北
温度 15°C
湿度 72%
气压 1006 hPa
能见度10公里或以上
少量云层高于1500英尺
散云层高于7000英尺

METAR: LGPZ 111050Z 06012KT 9999 FEW015 SCT070 15/10 Q1006 RMK FEW030 BLU

时间: 13:18 (11:18 UTC)

预报

该预报发布于6小时和18分钟前的05:00 UTC
预报有效从11日的 06点(UTC)到 12日的 06点(UTC)
风速15节,风向东北
能見度: 8000
少量云层高于1500英尺
散云层高于3000英尺
多云层高于8000英尺
几率 40% :
短暂存在
从 11日的 06点(UTC)到 11日的 12点(UTC)
能見度: 5000
散云层高于1500英尺
多云层高于3000英尺
阴天层高于8000英尺
几率 30% :
短暂存在
从 11日的 06点(UTC)到 11日的 09点(UTC)
能見度: 4000
散云层高于1000英尺
散云层高于1600英尺, 积雨云.
多云层高于2000英尺
阴天层高于6000英尺
雷暴, 雨

TAF: LGPZ 110500Z 1106/1206 04015KT 8000 FEW015 SCT030 BKN080 PROB40 TEMPO 1106/1112 5000 RA SCT015 BKN030 OVC080 PROB30 TEMPO 1106/1109 4000 TSRA SCT010 SCT016CB BKN020 OVC060

超过4000个机场的气象观测和天气预报(METAR&TAF报告)。

可查询的气象台以黄色和红色小点在地图上表示。

将鼠标移到小点上方,可查看气象台名称。

然后点击查看天气观测和预报。

如需切换地图:点击带黑十字的绿色按钮放大地图;点击带横线的绿色按钮缩小地图;或者点击绿色箭头查看邻近地区的地图。


METAR-TAF: